Time;durP1;ratioP1;P1;durP2;ratioP2;P2;SDS_P1;SDS_P2;PMS_P1;PMS_P2;Temp;Humidity;BMP_temperature;BMP_pressure;BME280_temperature;BME280_humidity;BME280_pressure;Samples;Min_cycle;Max_cycle;Signal;HPM_P1;HPM_P2
2021/09/03 00:02:19;;;;;;;10.23;6.78;;;15.90;99.90;;;;;;5017178;28;20389;-85
2021/09/03 00:04:44;;;;;;;8.70;5.88;;;15.80;99.90;;;;;;5033600;28;20025;-85
2021/09/03 00:07:11;;;;;;;9.57;6.38;;;15.80;99.90;;;;;;5033552;28;20037;-85
2021/09/03 00:09:40;;;;;;;9.82;6.60;;;15.80;99.90;;;;;;5033072;28;20109;-85
2021/09/03 00:12:07;;;;;;;11.18;6.18;;;15.80;99.90;;;;;;5016744;28;20030;-85
2021/09/03 00:14:34;;;;;;;10.88;6.40;;;15.80;99.90;;;;;;5033286;28;20124;-85
2021/09/03 00:17:01;;;;;;;10.00;6.63;;;15.80;99.90;;;;;;5034471;28;20036;-84
2021/09/03 00:19:27;;;;;;;8.52;6.47;;;15.70;99.90;;;;;;5034510;28;20026;-85
2021/09/03 00:21:53;;;;;;;8.50;5.95;;;15.70;99.90;;;;;;5033185;28;20549;-85
2021/09/03 00:24:20;;;;;;;9.68;6.15;;;15.70;99.90;;;;;;5033018;28;20477;-85
2021/09/03 00:26:46;;;;;;;9.75;6.63;;;15.70;99.90;;;;;;5032973;28;20030;-85
2021/09/03 00:29:12;;;;;;;9.85;6.57;;;15.60;99.90;;;;;;5032521;28;20496;-85
2021/09/03 00:31:38;;;;;;;9.55;6.45;;;15.60;99.90;;;;;;5016306;28;20025;-85
2021/09/03 00:34:05;;;;;;;9.40;6.43;;;15.60;99.90;;;;;;5033679;28;20033;-84
2021/09/03 00:36:32;;;;;;;10.45;6.55;;;15.50;99.90;;;;;;5032375;28;20034;-84
2021/09/03 00:38:58;;;;;;;10.52;7.10;;;15.50;99.90;;;;;;5036121;28;20080;-84
2021/09/03 00:41:25;;;;;;;12.88;6.82;;;15.50;99.90;;;;;;5015815;28;20086;-85
2021/09/03 00:43:51;;;;;;;9.40;6.55;;;15.50;99.90;;;;;;5032179;28;20470;-84
2021/09/03 00:46:17;;;;;;;9.65;6.72;;;15.50;99.90;;;;;;5015960;28;20029;-83
2021/09/03 00:48:43;;;;;;;10.30;6.88;;;15.40;99.90;;;;;;5016268;28;20148;-84
2021/09/03 00:51:09;;;;;;;8.93;6.28;;;15.40;99.90;;;;;;5032512;28;20060;-83
2021/09/03 00:53:35;;;;;;;10.55;7.20;;;15.40;99.90;;;;;;5031795;28;20046;-84
2021/09/03 00:56:02;;;;;;;12.00;7.10;;;15.40;99.90;;;;;;5033688;28;20022;-84
2021/09/03 00:58:29;;;;;;;10.05;6.93;;;15.40;99.90;;;;;;5015826;28;20073;-84
2021/09/03 01:00:56;;;;;;;9.80;6.32;;;15.40;99.90;;;;;;5015803;28;20044;-85
2021/09/03 01:03:23;;;;;;;10.10;6.75;;;15.30;99.90;;;;;;5016115;28;20120;-84
2021/09/03 01:05:50;;;;;;;12.27;7.22;;;15.30;99.90;;;;;;5032205;28;20014;-84
2021/09/03 01:08:16;;;;;;;10.02;6.90;;;15.30;99.90;;;;;;5032071;28;20026;-85
2021/09/03 01:10:43;;;;;;;12.35;7.78;;;15.30;99.90;;;;;;5032345;28;20024;-85
2021/09/03 01:13:09;;;;;;;10.68;7.53;;;15.20;99.90;;;;;;5032025;28;20482;-85
2021/09/03 01:15:35;;;;;;;10.98;7.15;;;15.20;99.90;;;;;;5032293;28;20052;-85
2021/09/03 01:18:02;;;;;;;10.70;7.63;;;15.10;99.90;;;;;;5032373;28;20017;-85
2021/09/03 01:20:29;;;;;;;12.05;8.20;;;15.10;99.90;;;;;;5033787;28;20539;-85
2021/09/03 01:22:54;;;;;;;11.57;7.25;;;15.10;99.90;;;;;;5032384;28;20022;-85
2021/09/03 01:25:21;;;;;;;11.52;7.72;;;15.10;99.90;;;;;;5033570;28;20466;-85
2021/09/03 01:27:46;;;;;;;11.35;7.40;;;15.10;99.90;;;;;;5032270;28;20025;-85
2021/09/03 01:30:15;;;;;;;11.93;8.55;;;15.10;99.90;;;;;;5032354;28;20037;-85
2021/09/03 01:32:43;;;;;;;12.35;8.90;;;15.00;99.90;;;;;;5033786;28;20029;-85
2021/09/03 01:35:09;;;;;;;11.02;7.70;;;15.00;99.90;;;;;;5015781;28;20029;-85
2021/09/03 01:37:35;;;;;;;11.68;7.82;;;15.00;99.90;;;;;;5031909;28;20036;-85
2021/09/03 01:40:02;;;;;;;11.75;8.05;;;15.00;99.90;;;;;;5032292;28;20509;-85
2021/09/03 01:42:27;;;;;;;11.20;8.02;;;15.00;99.90;;;;;;5049373;28;20060;-85
2021/09/03 01:44:53;;;;;;;13.10;8.77;;;14.90;99.90;;;;;;5034049;28;20037;-85
2021/09/03 01:47:19;;;;;;;9.02;7.65;;;14.90;99.90;;;;;;5032068;28;20103;-85
2021/09/03 01:49:45;;;;;;;10.57;7.85;;;14.90;99.90;;;;;;5015684;28;20124;-85
2021/09/03 01:52:12;;;;;;;11.32;8.00;;;14.80;99.90;;;;;;5032028;28;20034;-85
2021/09/03 01:54:38;;;;;;;11.23;7.70;;;14.80;99.90;;;;;;5015459;28;20038;-85
2021/09/03 01:57:05;;;;;;;13.23;8.82;;;14.80;99.90;;;;;;5032136;28;20044;-84
2021/09/03 01:59:31;;;;;;;13.10;9.13;;;14.80;99.90;;;;;;5032043;28;20048;-84
2021/09/03 02:01:57;;;;;;;9.75;7.85;;;14.80;99.90;;;;;;5032071;28;20030;-85
2021/09/03 02:04:23;;;;;;;13.38;8.73;;;14.80;99.90;;;;;;5033422;28;20124;-84
2021/09/03 02:06:49;;;;;;;16.30;8.90;;;14.70;99.90;;;;;;5036939;28;20052;-84
2021/09/03 02:09:16;;;;;;;15.80;9.55;;;14.70;99.90;;;;;;5036109;28;20022;-85
2021/09/03 02:11:42;;;;;;;14.85;8.93;;;14.70;99.90;;;;;;5036596;28;20393;-85
2021/09/03 02:14:09;;;;;;;12.15;8.52;;;14.70;99.90;;;;;;5036848;28;20116;-85
2021/09/03 02:16:35;;;;;;;11.60;8.15;;;14.70;99.90;;;;;;5036455;28;20111;-84
2021/09/03 02:19:02;;;;;;;11.00;8.48;;;14.70;99.90;;;;;;5018976;28;20030;-84
2021/09/03 02:21:28;;;;;;;12.73;9.23;;;14.60;99.90;;;;;;5018837;28;20034;-84
2021/09/03 02:23:54;;;;;;;11.55;8.65;;;14.70;99.90;;;;;;5018897;28;20124;-84
2021/09/03 02:26:20;;;;;;;12.23;8.52;;;14.60;99.90;;;;;;5018853;28;20029;-84
2021/09/03 02:28:45;;;;;;;12.93;8.70;;;14.70;99.90;;;;;;5036407;28;20079;-84
2021/09/03 02:31:11;;;;;;;11.30;7.90;;;14.60;99.90;;;;;;5018888;28;20474;-84
2021/09/03 02:33:37;;;;;;;11.30;8.35;;;14.60;99.90;;;;;;5034592;28;20041;-84
2021/09/03 02:36:03;;;;;;;12.07;8.23;;;14.60;99.90;;;;;;5034629;28;20029;-85
2021/09/03 02:38:29;;;;;;;11.10;8.00;;;14.50;99.90;;;;;;5034898;28;20033;-85
2021/09/03 02:40:55;;;;;;;11.10;7.90;;;14.50;99.90;;;;;;5034634;28;20120;-85
2021/09/03 02:43:21;;;;;;;11.65;8.50;;;14.50;99.90;;;;;;5018274;28;20531;-84
2021/09/03 02:45:47;;;;;;;13.10;8.18;;;14.50;99.90;;;;;;5035268;28;20025;-85
2021/09/03 02:48:13;;;;;;;12.18;7.97;;;14.50;99.90;;;;;;5018410;28;20032;-84
2021/09/03 02:50:38;;;;;;;13.23;9.13;;;14.50;99.90;;;;;;5034933;28;20025;-84
2021/09/03 02:53:06;;;;;;;12.13;8.88;;;14.50;99.90;;;;;;5018275;28;20030;-85
2021/09/03 02:55:31;;;;;;;11.55;8.63;;;14.40;99.90;;;;;;5034501;28;20029;-84
2021/09/03 02:57:57;;;;;;;12.18;8.85;;;14.40;99.90;;;;;;5034398;28;20053;-84
2021/09/03 03:00:24;;;;;;;10.98;8.80;;;14.40;99.90;;;;;;5018207;28;20029;-84
2021/09/03 03:02:53;;;;;;;13.80;9.90;;;14.40;99.90;;;;;;5034778;28;20390;-84
2021/09/03 03:05:38;;;;;;;12.82;9.05;;;14.40;99.90;;;;;;5033239;28;20041;-84
2021/09/03 03:08:05;;;;;;;13.25;8.80;;;14.30;99.90;;;;;;5035586;28;20466;-84
2021/09/03 03:10:31;;;;;;;13.85;10.13;;;14.30;99.90;;;;;;5017789;28;20025;-84
2021/09/03 03:12:58;;;;;;;12.73;9.15;;;14.30;99.90;;;;;;5017818;28;20033;-84
2021/09/03 03:15:24;;;;;;;14.02;9.02;;;14.30;99.90;;;;;;5033368;28;20473;-84
2021/09/03 03:17:51;;;;;;;11.45;8.25;;;14.30;99.90;;;;;;5035403;28;20042;-84
2021/09/03 03:20:18;;;;;;;13.10;9.10;;;14.20;99.90;;;;;;5017462;28;20021;-84
2021/09/03 03:22:45;;;;;;;13.95;9.68;;;14.20;99.90;;;;;;5035330;28;20017;-84
2021/09/03 03:25:11;;;;;;;14.77;9.82;;;14.20;99.90;;;;;;5034935;28;20049;-84
2021/09/03 03:27:42;;;;;;;14.70;9.57;;;14.20;99.90;;;;;;5017481;28;20032;-84
2021/09/03 03:30:09;;;;;;;13.73;9.60;;;14.20;99.90;;;;;;5035385;28;20034;-84
2021/09/03 03:32:35;;;;;;;14.60;9.40;;;14.10;99.90;;;;;;5034418;28;20033;-84
2021/09/03 03:35:03;;;;;;;13.05;9.73;;;14.20;99.90;;;;;;5022436;28;20024;-84
2021/09/03 03:37:29;;;;;;;15.48;10.70;;;14.10;99.90;;;;;;5042616;28;20112;-85
2021/09/03 03:39:55;;;;;;;12.65;9.82;;;14.10;99.90;;;;;;5033759;28;20017;-85
2021/09/03 03:42:21;;;;;;;13.93;10.05;;;14.10;99.90;;;;;;5033691;28;20040;-84
2021/09/03 03:44:47;;;;;;;13.43;10.20;;;14.10;99.90;;;;;;5017190;28;20132;-84
2021/09/03 03:47:13;;;;;;;14.43;9.48;;;14.00;99.90;;;;;;5017218;28;20122;-84
2021/09/03 03:49:39;;;;;;;14.20;9.95;;;14.10;99.90;;;;;;5033496;28;20104;-85
2021/09/03 03:52:05;;;;;;;16.40;10.43;;;14.00;99.90;;;;;;5016810;28;20044;-84
2021/09/03 03:54:32;;;;;;;12.95;10.00;;;14.00;99.90;;;;;;5016942;28;20033;-84
2021/09/03 03:56:59;;;;;;;13.40;10.18;;;14.00;99.90;;;;;;5034278;28;20041;-84
2021/09/03 03:59:25;;;;;;;15.80;11.25;;;14.00;99.90;;;;;;5016355;28;20049;-84
2021/09/03 04:01:51;;;;;;;13.15;9.77;;;13.90;99.90;;;;;;5034816;28;20030;-85
2021/09/03 04:04:16;;;;;;;14.18;11.10;;;14.00;99.90;;;;;;5033456;28;20040;-85
2021/09/03 04:06:43;;;;;;;14.73;10.77;;;13.90;99.90;;;;;;5034365;28;20032;-85
2021/09/03 04:09:09;;;;;;;13.77;10.27;;;13.90;99.90;;;;;;5033055;28;20458;-85
2021/09/03 04:11:35;;;;;;;13.93;10.40;;;13.90;99.90;;;;;;5033245;28;20028;-85
2021/09/03 04:14:00;;;;;;;14.13;10.45;;;13.90;99.90;;;;;;5016764;28;20045;-85
2021/09/03 04:16:28;;;;;;;13.90;11.05;;;13.80;99.90;;;;;;5034301;28;20021;-85
2021/09/03 04:18:54;;;;;;;15.32;10.18;;;13.80;99.90;;;;;;5016599;28;20052;-84
2021/09/03 04:21:22;;;;;;;15.75;11.20;;;13.80;99.90;;;;;;5032962;28;20033;-85
2021/09/03 04:23:47;;;;;;;13.85;10.35;;;13.80;99.90;;;;;;5034016;28;20038;-85
2021/09/03 04:26:14;;;;;;;14.80;10.10;;;13.70;99.90;;;;;;5016399;28;20033;-85
2021/09/03 04:28:43;;;;;;;15.65;11.10;;;13.70;99.90;;;;;;5016163;28;20108;-84
2021/09/03 04:31:09;;;;;;;12.98;9.65;;;13.70;99.90;;;;;;5032821;28;20132;-85
2021/09/03 04:33:36;;;;;;;14.95;10.80;;;13.70;99.90;;;;;;5032755;28;20037;-85
2021/09/03 04:36:02;;;;;;;19.83;11.93;;;13.70;99.90;;;;;;5032545;28;20048;-85
2021/09/03 04:38:30;;;;;;;15.70;11.75;;;13.70;99.90;;;;;;5015948;28;20112;-84
2021/09/03 04:40:56;;;;;;;15.63;11.20;;;13.70;99.90;;;;;;5032566;28;20036;-85
2021/09/03 04:43:22;;;;;;;15.77;11.02;;;13.60;99.90;;;;;;5032530;28;20036;-84
2021/09/03 04:45:48;;;;;;;17.15;11.60;;;13.60;99.90;;;;;;5032580;28;20420;-85
2021/09/03 04:48:14;;;;;;;17.48;11.68;;;13.60;99.90;;;;;;5016191;28;20040;-85
2021/09/03 04:50:44;;;;;;;15.68;11.25;;;13.60;99.90;;;;;;5016026;28;20389;-85
2021/09/03 04:53:10;;;;;;;15.40;11.50;;;13.60;99.90;;;;;;5032455;28;20389;-84
2021/09/03 04:55:36;;;;;;;16.98;11.25;;;13.60;99.90;;;;;;5032427;28;20109;-84
2021/09/03 04:58:02;;;;;;;19.92;12.82;;;13.60;99.90;;;;;;5031418;28;20053;-85
2021/09/03 05:00:28;;;;;;;18.17;12.80;;;13.60;99.90;;;;;;5016054;28;20030;-85
2021/09/03 05:02:56;;;;;;;15.95;12.02;;;13.60;99.90;;;;;;5032319;28;20116;-84
2021/09/03 05:05:22;;;;;;;16.52;12.38;;;13.60;99.90;;;;;;5032465;28;20113;-83
2021/09/03 05:07:49;;;;;;;15.25;11.57;;;13.60;99.90;;;;;;5031536;28;20482;-83
2021/09/03 05:10:14;;;;;;;17.77;12.15;;;13.60;99.90;;;;;;5015860;28;20033;-84
2021/09/03 05:12:42;;;;;;;14.13;10.35;;;13.60;99.90;;;;;;5033653;28;20095;-84
2021/09/03 05:15:14;;;;;;;14.25;10.93;;;13.60;99.90;;;;;;5015877;28;20068;-83
2021/09/03 05:17:50;;;;;;;16.92;11.85;;;13.60;99.90;;;;;;5033034;28;20477;-83
2021/09/03 05:20:17;;;;;;;15.13;10.95;;;13.60;99.90;;;;;;5032101;28;20036;-84
2021/09/03 05:22:45;;;;;;;13.63;11.05;;;13.60;99.90;;;;;;5015585;28;20031;-84
2021/09/03 05:25:13;;;;;;;16.08;11.48;;;13.60;99.90;;;;;;5015704;28;20443;-84
2021/09/03 05:27:41;;;;;;;17.73;11.93;;;13.60;99.90;;;;;;5039929;28;20026;-83
2021/09/03 05:30:09;;;;;;;16.60;11.93;;;13.60;99.90;;;;;;5032258;28;20033;-84
2021/09/03 05:32:36;;;;;;;17.50;12.10;;;13.60;99.90;;;;;;5033539;28;20072;-83
2021/09/03 05:35:05;;;;;;;17.42;12.27;;;13.70;99.90;;;;;;5032127;28;20469;-83
2021/09/03 05:37:32;;;;;;;17.48;12.60;;;13.70;99.90;;;;;;5015289;28;20033;-83
2021/09/03 05:40:01;;;;;;;16.35;11.50;;;13.70;99.90;;;;;;5050754;28;20049;-84
2021/09/03 05:42:27;;;;;;;14.90;11.27;;;13.70;99.90;;;;;;5035921;28;20048;-83
2021/09/03 05:44:56;;;;;;;17.77;12.88;;;13.80;99.90;;;;;;5035839;28;20112;-83
2021/09/03 05:47:23;;;;;;;16.45;11.90;;;13.80;99.90;;;;;;5035696;28;20120;-84
2021/09/03 05:49:49;;;;;;;15.75;12.68;;;13.80;99.90;;;;;;5019500;28;20025;-83
2021/09/03 05:52:15;;;;;;;19.35;13.27;;;13.90;99.90;;;;;;5019106;28;20022;-84
2021/09/03 05:54:42;;;;;;;18.92;13.30;;;13.90;99.90;;;;;;5019213;28;20025;-84
2021/09/03 05:57:08;;;;;;;19.92;13.85;;;14.00;99.90;;;;;;5036725;28;20099;-84
2021/09/03 05:59:36;;;;;;;18.52;13.02;;;14.00;99.90;;;;;;5036750;28;20057;-84
2021/09/03 06:02:03;;;;;;;17.33;12.50;;;14.10;99.90;;;;;;5035469;28;20029;-84
2021/09/03 06:04:29;;;;;;;19.73;12.88;;;14.10;99.90;;;;;;5035622;28;20437;-84
2021/09/03 06:06:55;;;;;;;17.33;12.23;;;14.10;99.90;;;;;;5036505;28;20025;-84
2021/09/03 06:09:31;;;;;;;18.20;12.38;;;14.20;99.90;;;;;;5034977;28;20386;-84
2021/09/03 06:11:57;;;;;;;17.30;12.70;;;14.20;99.90;;;;;;5035283;28;20037;-84
2021/09/03 06:14:23;;;;;;;18.33;12.93;;;14.30;99.90;;;;;;5035231;28;20385;-84
2021/09/03 06:16:52;;;;;;;18.38;12.25;;;14.30;99.90;;;;;;5036414;28;20021;-84
2021/09/03 06:19:21;;;;;;;16.92;11.70;;;14.40;99.90;;;;;;5036007;28;20029;-83
2021/09/03 06:21:48;;;;;;;18.23;11.80;;;14.50;99.90;;;;;;5018683;28;20071;-84
2021/09/03 06:24:34;;;;;;;18.73;13.55;;;14.50;99.90;;;;;;5035473;28;20041;-84
2021/09/03 06:27:10;;;;;;;17.65;13.45;;;14.60;99.90;;;;;;5035017;28;20021;-84
2021/09/03 06:29:37;;;;;;;19.60;12.32;;;14.60;99.90;;;;;;5018766;28;20485;-84
2021/09/03 06:32:06;;;;;;;17.35;12.73;;;14.60;99.90;;;;;;5035063;28;20401;-85
2021/09/03 06:34:33;;;;;;;19.48;12.30;;;14.70;99.90;;;;;;5034930;28;20047;-85
2021/09/03 06:37:00;;;;;;;15.25;11.88;;;14.80;99.90;;;;;;5034523;28;20381;-85
2021/09/03 06:39:27;;;;;;;17.30;12.57;;;14.80;99.90;;;;;;5035555;28;20537;-84
2021/09/03 06:41:56;;;;;;;19.35;12.60;;;14.90;99.90;;;;;;5035055;28;20041;-85
2021/09/03 06:44:22;;;;;;;16.35;11.85;;;15.00;99.90;;;;;;5036119;28;20048;-85
2021/09/03 06:46:49;;;;;;;17.52;13.13;;;15.00;99.90;;;;;;5035233;28;20026;-85
2021/09/03 06:49:18;;;;;;;16.40;11.48;;;15.10;99.90;;;;;;5018712;28;20048;-84
2021/09/03 06:51:44;;;;;;;15.85;11.55;;;15.20;99.90;;;;;;5035015;28;20022;-85
2021/09/03 06:54:11;;;;;;;16.48;11.45;;;15.20;99.90;;;;;;5034867;28;20425;-85
2021/09/03 06:56:39;;;;;;;16.80;12.38;;;15.30;99.90;;;;;;5036834;28;20175;-85
2021/09/03 06:59:05;;;;;;;17.90;11.48;;;15.30;99.90;;;;;;5035202;28;20394;-85
2021/09/03 07:01:32;;;;;;;16.20;11.55;;;15.40;99.90;;;;;;5035021;28;20036;-85
2021/09/03 07:03:59;;;;;;;16.58;11.73;;;15.50;99.90;;;;;;5005168;28;20048;-85
2021/09/03 07:06:27;;;;;;;15.75;11.45;;;15.60;99.90;;;;;;5015782;28;20542;-85
2021/09/03 07:08:56;;;;;;;15.85;11.05;;;15.60;99.90;;;;;;5014746;28;20031;-85
2021/09/03 07:11:22;;;;;;;14.70;10.20;;;15.70;99.90;;;;;;5031586;28;20146;-85
2021/09/03 07:13:48;;;;;;;14.18;11.15;;;15.80;99.90;;;;;;5014873;28;20044;-85
2021/09/03 07:16:14;;;;;;;14.07;10.63;;;15.90;99.90;;;;;;5031578;28;20105;-84
2021/09/03 07:18:40;;;;;;;15.32;11.25;;;15.90;99.90;;;;;;5015217;28;20026;-83
2021/09/03 07:21:06;;;;;;;18.17;12.02;;;16.00;99.90;;;;;;5014525;28;20085;-84
2021/09/03 07:23:32;;;;;;;15.35;11.13;;;16.10;99.90;;;;;;5019064;28;20466;-84
2021/09/03 07:26:01;;;;;;;15.02;10.63;;;16.10;99.90;;;;;;5028018;28;20120;-84
2021/09/03 07:28:28;;;;;;;15.82;10.10;;;16.20;99.90;;;;;;5034352;28;20052;-84
2021/09/03 07:30:54;;;;;;;14.02;10.75;;;16.30;99.90;;;;;;5017959;28;20036;-83
2021/09/03 07:33:25;;;;;;;13.15;9.10;;;16.30;99.90;;;;;;5033866;28;20037;-84
2021/09/03 07:35:52;;;;;;;17.20;11.02;;;16.40;99.90;;;;;;5033544;28;20072;-84
2021/09/03 07:38:22;;;;;;;13.93;9.70;;;16.50;99.90;;;;;;5017285;28;20044;-84
2021/09/03 07:40:49;;;;;;;13.43;10.00;;;16.50;99.90;;;;;;5034266;28;20378;-84
2021/09/03 07:43:16;;;;;;;11.60;9.50;;;16.60;99.90;;;;;;5033847;28;20041;-84
2021/09/03 07:45:43;;;;;;;11.27;8.93;;;16.70;99.90;;;;;;5035052;28;20025;-83
2021/09/03 07:48:10;;;;;;;13.80;10.48;;;16.80;99.90;;;;;;5017644;28;20036;-84
2021/09/03 07:50:38;;;;;;;14.00;9.60;;;16.90;99.90;;;;;;5017426;28;20108;-85
2021/09/03 07:53:07;;;;;;;13.48;9.55;;;16.90;99.90;;;;;;5032774;28;20048;-85
2021/09/03 07:55:34;;;;;;;13.43;9.95;;;17.00;99.90;;;;;;5022750;28;20032;-84
2021/09/03 07:58:03;;;;;;;13.88;8.77;;;17.10;99.90;;;;;;4997685;28;20060;-84
2021/09/03 08:00:30;;;;;;;12.63;9.23;;;17.20;99.90;;;;;;4997811;28;20379;-84
2021/09/03 08:02:58;;;;;;;13.77;10.18;;;17.30;99.90;;;;;;5014513;28;20030;-85
2021/09/03 08:05:25;;;;;;;13.35;9.25;;;17.40;99.90;;;;;;5015224;28;20029;-85
2021/09/03 08:07:54;;;;;;;13.27;9.23;;;17.50;99.90;;;;;;4980993;28;20034;-85
2021/09/03 08:10:22;;;;;;;13.93;9.80;;;17.60;99.90;;;;;;5014833;28;20501;-85
2021/09/03 08:12:50;;;;;;;10.70;8.40;;;17.60;99.90;;;;;;5015737;28;20037;-85
2021/09/03 08:15:18;;;;;;;10.80;8.07;;;17.70;99.90;;;;;;4997426;28;20465;-85
2021/09/03 08:17:44;;;;;;;13.50;8.73;;;17.80;99.90;;;;;;4997120;28;20402;-84
2021/09/03 08:20:13;;;;;;;12.50;8.18;;;17.90;99.90;;;;;;4981212;28;20120;-84
2021/09/03 08:22:40;;;;;;;10.27;7.45;;;17.90;99.90;;;;;;5013794;28;20026;-85
2021/09/03 08:25:07;;;;;;;10.55;7.70;;;18.00;99.90;;;;;;5013194;28;20064;-84
2021/09/03 08:27:34;;;;;;;10.80;7.35;;;18.10;99.90;;;;;;5013316;28;20022;-84
2021/09/03 08:30:01;;;;;;;9.40;7.18;;;18.20;99.90;;;;;;5013433;28;20041;-84
2021/09/03 08:32:27;;;;;;;11.32;8.38;;;18.20;99.90;;;;;;4996526;28;20038;-84
2021/09/03 08:34:55;;;;;;;11.57;8.00;;;18.30;99.90;;;;;;5013297;28;20049;-84
2021/09/03 08:37:23;;;;;;;12.52;8.77;;;18.40;99.90;;;;;;4981108;28;20502;-84
2021/09/03 08:39:54;;;;;;;11.63;7.75;;;18.40;99.90;;;;;;5013396;28;20054;-84
2021/09/03 08:42:24;;;;;;;11.95;8.20;;;18.50;99.90;;;;;;5014623;28;20127;-84
2021/09/03 08:44:50;;;;;;;10.07;7.57;;;18.60;99.90;;;;;;4997286;28;20470;-84
2021/09/03 08:47:20;;;;;;;12.35;8.65;;;18.70;99.90;;;;;;5022297;28;20030;-85
2021/09/03 08:49:50;;;;;;;10.68;7.40;;;18.80;99.90;;;;;;5015698;28;20026;-84
2021/09/03 08:52:20;;;;;;;11.65;8.05;;;19.00;99.90;;;;;;5009824;28;20033;-83
2021/09/03 08:54:49;;;;;;;10.55;8.07;;;19.10;99.90;;;;;;5003268;28;20045;-84
2021/09/03 08:57:36;;;;;;;11.85;7.75;;;19.20;99.90;;;;;;5028129;28;20029;-84
2021/09/03 09:00:22;;;;;;;11.10;7.53;;;19.40;99.90;;;;;;5024828;28;20148;-85
2021/09/03 09:03:32;;;;;;;10.57;7.10;;;19.40;99.90;;;;;;5033853;28;20060;-84
2021/09/03 09:06:04;;;;;;;9.77;6.82;;;19.60;99.90;;;;;;4953966;28;20118;-85
2021/09/03 09:08:38;;;;;;;8.38;6.28;;;19.70;99.90;;;;;;4954510;28;20031;-85
2021/09/03 09:11:13;;;;;;;8.80;6.38;;;19.70;99.90;;;;;;5007144;28;20073;-84
2021/09/03 09:13:45;;;;;;;9.13;6.70;;;19.90;99.90;;;;;;5031803;28;20064;-85
2021/09/03 09:16:19;;;;;;;11.23;6.97;;;20.00;99.90;;;;;;5018064;28;20040;-85
2021/09/03 09:18:47;;;;;;;9.93;7.18;;;20.10;99.90;;;;;;5034330;28;20735;-84
2021/09/03 09:21:23;;;;;;;10.40;6.28;;;20.10;99.90;;;;;;5029688;28;20025;-84
2021/09/03 09:23:56;;;;;;;10.57;6.75;;;20.20;99.90;;;;;;5024134;28;20021;-85
2021/09/03 09:26:24;;;;;;;;;;;20.30;99.90;;;;;;5020614;28;20037;-85
2021/09/03 09:28:56;;;;;;;10.13;6.60;;;20.30;99.90;;;;;;5015793;28;20352;-85
2021/09/03 09:31:36;;;;;;;8.75;6.55;;;20.40;99.90;;;;;;5015000;28;20025;-85
2021/09/03 09:34:15;;;;;;;10.75;7.82;;;20.50;99.90;;;;;;5015458;28;20030;-85
2021/09/03 09:36:42;;;;;;;10.23;6.97;;;20.70;99.90;;;;;;5014979;28;20030;-85
2021/09/03 09:39:10;;;;;;;8.52;6.75;;;20.80;99.90;;;;;;5013605;28;20030;-85
2021/09/03 09:41:37;;;;;;;9.90;6.50;;;21.60;99.90;;;;;;4997710;28;20044;-85
2021/09/03 09:44:04;;;;;;;9.52;6.63;;;23.00;99.90;;;;;;5003058;28;20500;-85
2021/09/03 09:46:32;;;;;;;10.93;6.57;;;24.40;99.90;;;;;;5033647;28;20025;-85
2021/09/03 09:49:02;;;;;;;8.95;6.15;;;25.50;99.90;;;;;;5032843;28;20499;-86
2021/09/03 09:51:43;;;;;;;7.72;5.38;;;26.30;99.90;;;;;;5014111;28;20061;-86
2021/09/03 09:54:16;;;;;;;8.38;5.40;;;27.30;99.90;;;;;;5013922;28;20030;-87
2021/09/03 09:56:51;;;;;;;18.00;6.43;;;28.00;99.90;;;;;;5030481;28;20026;-86
2021/09/03 09:59:19;;;;;;;10.52;5.38;;;28.70;99.90;;;;;;5014896;28;20057;-85
2021/09/03 10:01:48;;;;;;;8.60;5.53;;;29.20;99.90;;;;;;5016024;28;20485;-85
2021/09/03 10:04:18;;;;;;;7.70;4.32;;;29.60;99.90;;;;;;5030488;28;20030;-87
2021/09/03 10:06:50;;;;;;;8.05;4.80;;;29.70;99.90;;;;;;5015129;28;20038;-86
2021/09/03 10:09:23;;;;;;;7.85;4.82;;;30.20;99.90;;;;;;5017045;28;20030;-86
2021/09/03 10:11:52;;;;;;;6.53;4.53;;;30.70;98.90;;;;;;5017103;28;20065;-86
2021/09/03 10:14:23;;;;;;;7.10;5.45;;;30.90;98.00;;;;;;5038309;28;20041;-86
2021/09/03 10:17:00;;;;;;;7.35;4.70;;;30.80;96.80;;;;;;5040556;28;20025;-84
2021/09/03 10:19:35;;;;;;;7.63;4.72;;;31.00;96.60;;;;;;5040211;28;20014;-85
2021/09/03 10:22:06;;;;;;;6.07;3.97;;;31.20;95.90;;;;;;5032632;28;20038;-86
2021/09/03 10:24:35;;;;;;;11.77;5.53;;;31.50;95.30;;;;;;4999485;28;20470;-85
2021/09/03 10:27:04;;;;;;;7.50;4.72;;;31.60;94.00;;;;;;5017129;28;20406;-85
2021/09/03 10:29:46;;;;;;;8.50;4.72;;;31.60;93.50;;;;;;5017062;28;20026;-84
2021/09/03 10:32:23;;;;;;;7.25;3.75;;;31.90;92.70;;;;;;5015783;28;20049;-85
2021/09/03 10:34:56;;;;;;;6.30;3.85;;;32.10;92.20;;;;;;5016963;28;20025;-86
2021/09/03 10:37:28;;;;;;;5.88;3.90;;;32.40;91.60;;;;;;5015717;28;20092;-86
2021/09/03 10:40:21;;;;;;;5.78;4.25;;;32.70;90.90;;;;;;5016639;28;20026;-86
2021/09/03 10:42:55;;;;;;;7.50;4.50;;;32.80;89.70;;;;;;5015034;28;20092;-86
2021/09/03 10:45:36;;;;;;;6.15;4.07;;;32.80;88.80;;;;;;5013241;28;20050;-86
2021/09/03 10:48:19;;;;;;;6.00;4.10;;;32.80;87.60;;;;;;5013577;28;20037;-86
2021/09/03 10:50:51;;;;;;;7.22;3.70;;;33.00;87.70;;;;;;5013429;28;20032;-85
2021/09/03 10:53:30;;;;;;;6.53;3.65;;;33.30;86.10;;;;;;5013328;28;20030;-86
2021/09/03 10:56:19;;;;;;;5.57;3.47;;;33.60;84.30;;;;;;5015174;28;20040;-85
2021/09/03 10:58:51;;;;;;;6.43;4.00;;;33.70;84.00;;;;;;5033875;28;20128;-86
2021/09/03 11:01:26;;;;;;;5.80;3.88;;;33.90;82.80;;;;;;5032893;28;20128;-86
2021/09/03 11:04:15;;;;;;;5.65;3.63;;;34.10;81.90;;;;;;5032544;28;20448;-85
2021/09/03 11:06:53;;;;;;;4.97;3.38;;;34.00;80.90;;;;;;5016036;28;20631;-86
2021/09/03 11:09:31;;;;;;;5.53;3.72;;;34.10;79.70;;;;;;5018494;28;20026;-85
2021/09/03 11:12:16;;;;;;;6.88;3.75;;;34.20;78.50;;;;;;5026489;28;20022;-86
2021/09/03 11:14:43;;;;;;;6.90;4.00;;;34.30;77.90;;;;;;5013330;28;20528;-86
2021/09/03 11:17:12;;;;;;;8.00;4.25;;;34.20;77.50;;;;;;4993411;28;20041;-86
2021/09/03 11:19:48;;;;;;;11.80;5.15;;;34.30;76.30;;;;;;5032804;28;20373;-86
2021/09/03 11:22:16;;;;;;;14.18;5.32;;;34.10;75.60;;;;;;5046758;28;20448;-86
2021/09/03 11:24:50;;;;;;;7.72;4.22;;;33.80;76.10;;;;;;5034203;28;20088;-85
2021/09/03 11:27:29;;;;;;;6.15;4.30;;;33.90;75.90;;;;;;5032231;28;20029;-86
2021/09/03 11:30:18;;;;;;;7.57;3.67;;;33.90;75.10;;;;;;5033099;28;20481;-86
2021/09/03 11:32:47;;;;;;;6.72;3.55;;;33.90;75.00;;;;;;5018801;28;20037;-86
2021/09/03 11:35:14;;;;;;;7.38;4.20;;;33.90;75.20;;;;;;5033919;28;20171;-86
2021/09/03 11:37:50;;;;;;;6.28;3.90;;;34.10;74.30;;;;;;5033211;28;20037;-86
2021/09/03 11:40:26;;;;;;;6.38;4.40;;;34.20;73.70;;;;;;5033699;28;20111;-86
2021/09/03 11:42:57;;;;;;;6.43;3.90;;;34.30;72.70;;;;;;5034080;28;20033;-86
2021/09/03 11:45:27;;;;;;;;;;;34.60;72.50;;;;;;5035732;28;20037;-86
2021/09/03 11:48:00;;;;;;;5.80;3.50;;;34.50;72.60;;;;;;5031730;28;19912;-86
2021/09/03 11:50:30;;;;;;;5.30;3.90;;;34.60;72.40;;;;;;5034745;28;20032;-86
2021/09/03 11:52:58;;;;;;;7.05;4.03;;;34.80;71.50;;;;;;5033670;28;20115;-86
2021/09/03 11:55:31;;;;;;;6.15;4.18;;;34.90;71.10;;;;;;5033702;28;20029;-86
2021/09/03 11:57:59;;;;;;;7.75;4.30;;;35.10;71.30;;;;;;5016539;28;20048;-86
2021/09/03 12:00:40;;;;;;;5.60;3.75;;;35.10;71.70;;;;;;5030181;28;20053;-86
2021/09/03 12:03:15;;;;;;;6.13;4.13;;;35.30;71.20;;;;;;5013827;28;20053;-86
2021/09/03 12:05:48;;;;;;;5.93;3.80;;;35.50;69.70;;;;;;5023513;28;20488;-86
2021/09/03 12:08:27;;;;;;;6.70;3.70;;;35.40;69.50;;;;;;5033155;28;20053;-88
2021/09/03 12:11:20;;;;;;;5.53;4.00;;;35.60;69.20;;;;;;5032074;28;20026;-87
2021/09/03 12:13:57;;;;;;;5.60;3.95;;;35.70;68.40;;;;;;5028491;28;20375;-87
2021/09/03 12:16:30;;;;;;;5.25;3.90;;;35.90;68.00;;;;;;5061579;28;20106;-87
2021/09/03 12:19:01;;;;;;;6.13;3.80;;;36.00;67.60;;;;;;5027167;28;20041;-87
2021/09/03 12:21:39;;;;;;;4.70;3.50;;;36.00;67.20;;;;;;5030649;28;20040;-86
2021/09/03 12:24:12;;;;;;;4.72;3.78;;;36.00;67.20;;;;;;5030678;28;20517;-87
2021/09/03 12:27:10;;;;;;;5.13;3.58;;;36.00;66.60;;;;;;5030733;28;20029;-87
2021/09/03 12:29:43;;;;;;;5.82;3.90;;;36.10;67.00;;;;;;5016019;28;20473;-87
2021/09/03 12:32:14;;;;;;;5.38;3.53;;;36.20;66.80;;;;;;5014291;28;20029;-86
2021/09/03 12:34:42;;;;;;;5.85;4.00;;;36.30;66.30;;;;;;5014390;28;20037;-86
2021/09/03 12:37:16;;;;;;;6.60;3.80;;;36.30;66.20;;;;;;5030654;28;20025;-87
2021/09/03 12:39:45;;;;;;;5.15;3.53;;;36.40;65.50;;;;;;5030707;28;20021;-87
2021/09/03 12:42:15;;;;;;;5.03;3.53;;;36.60;64.90;;;;;;5013249;28;20148;-86
2021/09/03 12:44:44;;;;;;;5.03;3.58;;;36.70;64.10;;;;;;5014436;28;20136;-85
2021/09/03 12:47:11;;;;;;;4.88;3.67;;;36.60;63.90;;;;;;5047083;28;20041;-86
2021/09/03 12:49:39;;;;;;;4.15;3.35;;;36.50;64.00;;;;;;5030017;28;20025;-86